sensor_id;sensor_type;location;lat;lon;timestamp;P1;durP1;ratioP1;P2;durP2;ratioP2
42810;SDS011;28457;55.680;37.656;2022-08-19T00:00:12;6.43;;;3.60;;
42810;SDS011;28457;55.680;37.656;2022-08-19T00:02:42;8.40;;;3.92;;
42810;SDS011;28457;55.680;37.656;2022-08-19T00:05:16;4.93;;;3.42;;
42810;SDS011;28457;55.680;37.656;2022-08-19T00:07:45;4.82;;;3.05;;
42810;SDS011;28457;55.680;37.656;2022-08-19T00:10:15;4.38;;;3.20;;
42810;SDS011;28457;55.680;37.656;2022-08-19T00:12:44;5.65;;;3.40;;
42810;SDS011;28457;55.680;37.656;2022-08-19T00:15:16;4.38;;;3.28;;
42810;SDS011;28457;55.680;37.656;2022-08-19T00:17:46;4.97;;;3.47;;
42810;SDS011;28457;55.680;37.656;2022-08-19T00:20:16;5.68;;;3.45;;
42810;SDS011;28457;55.680;37.656;2022-08-19T00:22:47;5.35;;;3.13;;
42810;SDS011;28457;55.680;37.656;2022-08-19T00:25:15;5.57;;;3.40;;
42810;SDS011;28457;55.680;37.656;2022-08-19T00:27:56;6.47;;;3.83;;
42810;SDS011;28457;55.680;37.656;2022-08-19T00:30:26;5.35;;;3.00;;
42810;SDS011;28457;55.680;37.656;2022-08-19T00:32:55;5.38;;;3.63;;
42810;SDS011;28457;55.680;37.656;2022-08-19T00:35:24;4.93;;;3.45;;
42810;SDS011;28457;55.680;37.656;2022-08-19T00:37:54;7.00;;;3.85;;
42810;SDS011;28457;55.680;37.656;2022-08-19T00:40:23;5.30;;;3.50;;
42810;SDS011;28457;55.680;37.656;2022-08-19T00:42:51;7.35;;;3.30;;
42810;SDS011;28457;55.680;37.656;2022-08-19T00:45:21;5.13;;;3.40;;
42810;SDS011;28457;55.680;37.656;2022-08-19T00:47:53;6.93;;;3.60;;
42810;SDS011;28457;55.680;37.656;2022-08-19T00:50:21;6.22;;;3.15;;
42810;SDS011;28457;55.680;37.656;2022-08-19T00:52:51;7.90;;;3.50;;
42810;SDS011;28457;55.680;37.656;2022-08-19T00:55:21;6.18;;;3.50;;
42810;SDS011;28457;55.680;37.656;2022-08-19T00:57:55;7.85;;;3.72;;
42810;SDS011;28457;55.680;37.656;2022-08-19T01:00:28;9.73;;;4.05;;
42810;SDS011;28457;55.680;37.656;2022-08-19T01:02:58;5.20;;;4.38;;
42810;SDS011;28457;55.680;37.656;2022-08-19T01:05:27;6.95;;;3.47;;
42810;SDS011;28457;55.680;37.656;2022-08-19T01:07:58;4.05;;;3.22;;
42810;SDS011;28457;55.680;37.656;2022-08-19T01:10:29;5.72;;;3.38;;
42810;SDS011;28457;55.680;37.656;2022-08-19T01:13:02;4.97;;;3.55;;
42810;SDS011;28457;55.680;37.656;2022-08-19T01:15:32;4.90;;;3.58;;
42810;SDS011;28457;55.680;37.656;2022-08-19T01:18:08;5.13;;;3.45;;
42810;SDS011;28457;55.680;37.656;2022-08-19T01:20:38;6.05;;;3.63;;
42810;SDS011;28457;55.680;37.656;2022-08-19T01:23:10;3.90;;;3.20;;
42810;SDS011;28457;55.680;37.656;2022-08-19T01:25:41;6.53;;;3.28;;
42810;SDS011;28457;55.680;37.656;2022-08-19T01:28:17;7.57;;;3.72;;
42810;SDS011;28457;55.680;37.656;2022-08-19T01:31:06;5.47;;;3.60;;
42810;SDS011;28457;55.680;37.656;2022-08-19T01:33:53;6.15;;;3.55;;
42810;SDS011;28457;55.680;37.656;2022-08-19T01:36:25;5.30;;;3.03;;
42810;SDS011;28457;55.680;37.656;2022-08-19T01:38:58;6.53;;;3.08;;
42810;SDS011;28457;55.680;37.656;2022-08-19T01:41:27;4.40;;;3.40;;
42810;SDS011;28457;55.680;37.656;2022-08-19T01:43:55;7.88;;;3.60;;
42810;SDS011;28457;55.680;37.656;2022-08-19T01:46:43;5.90;;;3.47;;
42810;SDS011;28457;55.680;37.656;2022-08-19T01:49:12;5.18;;;3.47;;
42810;SDS011;28457;55.680;37.656;2022-08-19T01:51:40;5.93;;;3.00;;
42810;SDS011;28457;55.680;37.656;2022-08-19T01:54:13;4.55;;;3.22;;
42810;SDS011;28457;55.680;37.656;2022-08-19T01:56:53;5.95;;;3.65;;
42810;SDS011;28457;55.680;37.656;2022-08-19T01:59:25;5.55;;;3.92;;
42810;SDS011;28457;55.680;37.656;2022-08-19T02:01:54;4.90;;;3.03;;
42810;SDS011;28457;55.680;37.656;2022-08-19T02:04:23;5.47;;;3.63;;
42810;SDS011;28457;55.680;37.656;2022-08-19T02:06:52;6.95;;;3.90;;
42810;SDS011;28457;55.680;37.656;2022-08-19T02:09:22;8.10;;;3.63;;
42810;SDS011;28457;55.680;37.656;2022-08-19T02:11:50;7.22;;;4.70;;
42810;SDS011;28457;55.680;37.656;2022-08-19T02:14:20;6.85;;;4.78;;
42810;SDS011;28457;55.680;37.656;2022-08-19T02:16:48;6.82;;;4.30;;
42810;SDS011;28457;55.680;37.656;2022-08-19T02:19:17;8.55;;;4.50;;
42810;SDS011;28457;55.680;37.656;2022-08-19T02:21:45;6.05;;;4.57;;
42810;SDS011;28457;55.680;37.656;2022-08-19T02:24:13;6.07;;;4.75;;
42810;SDS011;28457;55.680;37.656;2022-08-19T02:26:43;8.40;;;4.68;;
42810;SDS011;28457;55.680;37.656;2022-08-19T02:29:12;10.55;;;5.03;;
42810;SDS011;28457;55.680;37.656;2022-08-19T02:31:40;5.50;;;3.50;;
42810;SDS011;28457;55.680;37.656;2022-08-19T02:34:09;6.15;;;3.97;;
42810;SDS011;28457;55.680;37.656;2022-08-19T02:36:37;6.63;;;4.00;;
42810;SDS011;28457;55.680;37.656;2022-08-19T02:39:08;5.90;;;4.22;;
42810;SDS011;28457;55.680;37.656;2022-08-19T02:41:36;6.47;;;4.10;;
42810;SDS011;28457;55.680;37.656;2022-08-19T02:44:06;7.13;;;3.78;;
42810;SDS011;28457;55.680;37.656;2022-08-19T02:46:54;7.40;;;4.50;;
42810;SDS011;28457;55.680;37.656;2022-08-19T02:49:23;12.82;;;3.80;;
42810;SDS011;28457;55.680;37.656;2022-08-19T02:51:51;4.78;;;3.58;;
42810;SDS011;28457;55.680;37.656;2022-08-19T02:54:21;6.38;;;3.78;;
42810;SDS011;28457;55.680;37.656;2022-08-19T02:56:49;4.68;;;3.33;;
42810;SDS011;28457;55.680;37.656;2022-08-19T02:59:19;5.03;;;3.95;;
42810;SDS011;28457;55.680;37.656;2022-08-19T03:01:48;5.32;;;4.38;;
42810;SDS011;28457;55.680;37.656;2022-08-19T03:04:17;6.85;;;4.20;;
42810;SDS011;28457;55.680;37.656;2022-08-19T03:06:46;6.55;;;4.60;;
42810;SDS011;28457;55.680;37.656;2022-08-19T03:09:16;5.80;;;3.97;;
42810;SDS011;28457;55.680;37.656;2022-08-19T03:11:46;7.13;;;4.50;;
42810;SDS011;28457;55.680;37.656;2022-08-19T03:14:19;6.50;;;3.97;;
42810;SDS011;28457;55.680;37.656;2022-08-19T03:16:49;7.20;;;4.40;;
42810;SDS011;28457;55.680;37.656;2022-08-19T03:19:19;9.13;;;5.05;;
42810;SDS011;28457;55.680;37.656;2022-08-19T03:21:49;8.40;;;4.85;;
42810;SDS011;28457;55.680;37.656;2022-08-19T03:24:18;8.38;;;5.05;;
42810;SDS011;28457;55.680;37.656;2022-08-19T03:26:47;6.65;;;4.22;;
42810;SDS011;28457;55.680;37.656;2022-08-19T03:29:18;9.07;;;4.93;;
42810;SDS011;28457;55.680;37.656;2022-08-19T03:31:56;7.80;;;5.35;;
42810;SDS011;28457;55.680;37.656;2022-08-19T03:34:28;10.32;;;4.65;;
42810;SDS011;28457;55.680;37.656;2022-08-19T03:36:59;10.90;;;4.75;;
42810;SDS011;28457;55.680;37.656;2022-08-19T03:39:33;8.52;;;4.40;;
42810;SDS011;28457;55.680;37.656;2022-08-19T03:42:03;8.32;;;4.88;;
42810;SDS011;28457;55.680;37.656;2022-08-19T03:44:54;7.05;;;4.35;;
42810;SDS011;28457;55.680;37.656;2022-08-19T03:47:22;13.68;;;5.53;;
42810;SDS011;28457;55.680;37.656;2022-08-19T03:49:50;6.72;;;4.45;;
42810;SDS011;28457;55.680;37.656;2022-08-19T03:52:19;8.30;;;4.53;;
42810;SDS011;28457;55.680;37.656;2022-08-19T03:54:47;6.57;;;4.55;;
42810;SDS011;28457;55.680;37.656;2022-08-19T03:57:16;9.02;;;4.30;;
42810;SDS011;28457;55.680;37.656;2022-08-19T03:59:44;5.35;;;4.13;;
42810;SDS011;28457;55.680;37.656;2022-08-19T04:02:14;10.25;;;4.45;;
42810;SDS011;28457;55.680;37.656;2022-08-19T04:04:43;7.68;;;4.18;;
42810;SDS011;28457;55.680;37.656;2022-08-19T04:07:13;7.95;;;4.53;;
42810;SDS011;28457;55.680;37.656;2022-08-19T04:09:43;7.95;;;4.55;;
42810;SDS011;28457;55.680;37.656;2022-08-19T04:12:11;5.13;;;3.65;;
42810;SDS011;28457;55.680;37.656;2022-08-19T04:14:41;5.70;;;4.07;;
42810;SDS011;28457;55.680;37.656;2022-08-19T04:17:10;6.28;;;4.43;;
42810;SDS011;28457;55.680;37.656;2022-08-19T04:19:41;6.35;;;4.20;;
42810;SDS011;28457;55.680;37.656;2022-08-19T04:22:09;6.75;;;3.80;;
42810;SDS011;28457;55.680;37.656;2022-08-19T04:24:39;7.30;;;4.35;;
42810;SDS011;28457;55.680;37.656;2022-08-19T04:27:07;5.85;;;4.35;;
42810;SDS011;28457;55.680;37.656;2022-08-19T04:29:36;7.40;;;4.38;;
42810;SDS011;28457;55.680;37.656;2022-08-19T04:32:06;7.38;;;4.80;;
42810;SDS011;28457;55.680;37.656;2022-08-19T04:34:35;5.65;;;4.68;;
42810;SDS011;28457;55.680;37.656;2022-08-19T04:37:26;6.95;;;4.40;;
42810;SDS011;28457;55.680;37.656;2022-08-19T04:42:49;7.90;;;4.82;;
42810;SDS011;28457;55.680;37.656;2022-08-19T04:45:18;8.88;;;5.00;;
42810;SDS011;28457;55.680;37.656;2022-08-19T04:47:48;6.07;;;4.25;;
42810;SDS011;28457;55.680;37.656;2022-08-19T04:50:39;6.72;;;4.32;;
42810;SDS011;28457;55.680;37.656;2022-08-19T04:53:10;6.95;;;5.30;;
42810;SDS011;28457;55.680;37.656;2022-08-19T04:55:39;6.00;;;4.60;;
42810;SDS011;28457;55.680;37.656;2022-08-19T04:58:09;8.85;;;4.82;;
42810;SDS011;28457;55.680;37.656;2022-08-19T05:00:37;8.07;;;4.82;;
42810;SDS011;28457;55.680;37.656;2022-08-19T05:03:07;6.32;;;4.45;;
42810;SDS011;28457;55.680;37.656;2022-08-19T05:05:38;10.65;;;5.28;;
42810;SDS011;28457;55.680;37.656;2022-08-19T05:08:13;6.75;;;5.05;;
42810;SDS011;28457;55.680;37.656;2022-08-19T05:10:57;6.10;;;4.93;;
42810;SDS011;28457;55.680;37.656;2022-08-19T05:13:26;7.28;;;4.65;;
42810;SDS011;28457;55.680;37.656;2022-08-19T05:15:55;6.75;;;4.47;;
42810;SDS011;28457;55.680;37.656;2022-08-19T05:18:25;6.85;;;4.63;;
42810;SDS011;28457;55.680;37.656;2022-08-19T05:21:12;5.93;;;4.67;;
42810;SDS011;28457;55.680;37.656;2022-08-19T05:24:01;7.28;;;4.57;;
42810;SDS011;28457;55.680;37.656;2022-08-19T05:26:35;9.05;;;5.00;;
42810;SDS011;28457;55.680;37.656;2022-08-19T05:29:05;10.65;;;5.35;;
42810;SDS011;28457;55.680;37.656;2022-08-19T05:31:36;9.80;;;5.53;;
42810;SDS011;28457;55.680;37.656;2022-08-19T05:34:07;11.85;;;5.57;;
42810;SDS011;28457;55.680;37.656;2022-08-19T05:36:45;7.38;;;4.82;;
42810;SDS011;28457;55.680;37.656;2022-08-19T05:39:17;6.80;;;4.63;;
42810;SDS011;28457;55.680;37.656;2022-08-19T05:41:49;10.60;;;5.20;;
42810;SDS011;28457;55.680;37.656;2022-08-19T05:44:20;13.68;;;5.80;;
42810;SDS011;28457;55.680;37.656;2022-08-19T05:46:49;13.55;;;5.80;;
42810;SDS011;28457;55.680;37.656;2022-08-19T05:49:20;7.70;;;4.65;;
42810;SDS011;28457;55.680;37.656;2022-08-19T05:51:50;10.32;;;5.75;;
42810;SDS011;28457;55.680;37.656;2022-08-19T05:54:21;10.95;;;5.32;;
42810;SDS011;28457;55.680;37.656;2022-08-19T05:56:50;8.20;;;4.35;;
42810;SDS011;28457;55.680;37.656;2022-08-19T05:59:20;7.25;;;4.75;;
42810;SDS011;28457;55.680;37.656;2022-08-19T06:01:51;10.05;;;4.53;;
42810;SDS011;28457;55.680;37.656;2022-08-19T06:04:22;9.32;;;4.78;;
42810;SDS011;28457;55.680;37.656;2022-08-19T06:06:52;7.55;;;4.28;;
42810;SDS011;28457;55.680;37.656;2022-08-19T06:09:23;8.90;;;5.35;;
42810;SDS011;28457;55.680;37.656;2022-08-19T06:11:52;9.55;;;4.75;;
42810;SDS011;28457;55.680;37.656;2022-08-19T06:14:25;11.05;;;5.50;;
42810;SDS011;28457;55.680;37.656;2022-08-19T06:16:56;13.25;;;4.68;;
42810;SDS011;28457;55.680;37.656;2022-08-19T06:19:32;6.20;;;4.22;;
42810;SDS011;28457;55.680;37.656;2022-08-19T06:22:06;8.98;;;4.38;;
42810;SDS011;28457;55.680;37.656;2022-08-19T06:24:37;6.53;;;4.03;;
42810;SDS011;28457;55.680;37.656;2022-08-19T06:27:06;6.80;;;4.10;;
42810;SDS011;28457;55.680;37.656;2022-08-19T06:29:35;11.80;;;5.15;;
42810;SDS011;28457;55.680;37.656;2022-08-19T06:32:03;7.95;;;5.13;;
42810;SDS011;28457;55.680;37.656;2022-08-19T06:34:32;9.40;;;4.97;;
42810;SDS011;28457;55.680;37.656;2022-08-19T06:37:02;9.00;;;4.38;;
42810;SDS011;28457;55.680;37.656;2022-08-19T06:39:33;8.70;;;4.70;;
42810;SDS011;28457;55.680;37.656;2022-08-19T06:42:06;8.35;;;4.30;;
42810;SDS011;28457;55.680;37.656;2022-08-19T06:44:38;6.22;;;3.80;;
42810;SDS011;28457;55.680;37.656;2022-08-19T06:47:15;6.20;;;4.28;;
42810;SDS011;28457;55.680;37.656;2022-08-19T06:49:52;8.52;;;4.82;;
42810;SDS011;28457;55.680;37.656;2022-08-19T06:52:31;12.50;;;4.57;;
42810;SDS011;28457;55.680;37.656;2022-08-19T06:55:04;22.40;;;6.05;;
42810;SDS011;28457;55.680;37.656;2022-08-19T06:57:34;20.33;;;6.50;;
42810;SDS011;28457;55.680;37.656;2022-08-19T07:00:04;16.98;;;6.28;;
42810;SDS011;28457;55.680;37.656;2022-08-19T07:02:39;13.07;;;5.25;;
42810;SDS011;28457;55.680;37.656;2022-08-19T07:05:13;11.43;;;5.30;;
42810;SDS011;28457;55.680;37.656;2022-08-19T07:07:42;11.90;;;5.20;;
42810;SDS011;28457;55.680;37.656;2022-08-19T07:10:13;14.55;;;6.70;;
42810;SDS011;28457;55.680;37.656;2022-08-19T07:12:44;11.57;;;6.45;;
42810;SDS011;28457;55.680;37.656;2022-08-19T07:15:14;8.13;;;4.18;;
42810;SDS011;28457;55.680;37.656;2022-08-19T07:17:44;6.50;;;4.47;;
42810;SDS011;28457;55.680;37.656;2022-08-19T07:20:18;22.15;;;6.80;;
42810;SDS011;28457;55.680;37.656;2022-08-19T07:22:53;20.05;;;7.05;;
42810;SDS011;28457;55.680;37.656;2022-08-19T07:25:22;13.40;;;5.00;;
42810;SDS011;28457;55.680;37.656;2022-08-19T07:30:28;7.90;;;4.60;;
42810;SDS011;28457;55.680;37.656;2022-08-19T07:33:00;8.98;;;5.05;;
42810;SDS011;28457;55.680;37.656;2022-08-19T07:35:30;8.60;;;5.13;;
42810;SDS011;28457;55.680;37.656;2022-08-19T07:38:00;7.10;;;4.90;;
42810;SDS011;28457;55.680;37.656;2022-08-19T07:40:30;8.13;;;4.50;;
42810;SDS011;28457;55.680;37.656;2022-08-19T07:43:00;8.05;;;4.63;;
42810;SDS011;28457;55.680;37.656;2022-08-19T07:45:29;6.78;;;4.45;;
42810;SDS011;28457;55.680;37.656;2022-08-19T07:47:58;9.65;;;5.43;;
42810;SDS011;28457;55.680;37.656;2022-08-19T07:50:27;13.38;;;4.88;;
42810;SDS011;28457;55.680;37.656;2022-08-19T07:52:56;7.07;;;3.65;;
42810;SDS011;28457;55.680;37.656;2022-08-19T07:55:25;7.82;;;4.10;;
42810;SDS011;28457;55.680;37.656;2022-08-19T07:58:10;17.08;;;5.10;;
42810;SDS011;28457;55.680;37.656;2022-08-19T08:00:41;5.95;;;4.43;;
42810;SDS011;28457;55.680;37.656;2022-08-19T08:03:10;7.25;;;3.95;;
42810;SDS011;28457;55.680;37.656;2022-08-19T08:05:39;7.22;;;4.40;;
42810;SDS011;28457;55.680;37.656;2022-08-19T08:08:25;6.07;;;4.65;;
42810;SDS011;28457;55.680;37.656;2022-08-19T08:11:16;7.40;;;3.38;;
42810;SDS011;28457;55.680;37.656;2022-08-19T08:13:48;7.78;;;3.70;;
42810;SDS011;28457;55.680;37.656;2022-08-19T08:16:30;10.10;;;5.40;;
42810;SDS011;28457;55.680;37.656;2022-08-19T08:19:05;6.85;;;3.88;;
42810;SDS011;28457;55.680;37.656;2022-08-19T08:21:53;10.88;;;5.05;;
42810;SDS011;28457;55.680;37.656;2022-08-19T08:24:23;7.78;;;4.85;;
42810;SDS011;28457;55.680;37.656;2022-08-19T08:26:54;10.32;;;5.05;;
42810;SDS011;28457;55.680;37.656;2022-08-19T08:29:25;7.93;;;4.13;;
42810;SDS011;28457;55.680;37.656;2022-08-19T08:32:00;8.70;;;4.60;;
42810;SDS011;28457;55.680;37.656;2022-08-19T08:34:40;7.47;;;3.97;;
42810;SDS011;28457;55.680;37.656;2022-08-19T08:37:08;8.18;;;3.90;;
42810;SDS011;28457;55.680;37.656;2022-08-19T08:39:37;7.00;;;3.75;;
42810;SDS011;28457;55.680;37.656;2022-08-19T08:42:07;9.95;;;4.57;;
42810;SDS011;28457;55.680;37.656;2022-08-19T08:44:46;5.88;;;3.88;;
42810;SDS011;28457;55.680;37.656;2022-08-19T08:47:25;9.07;;;4.00;;
42810;SDS011;28457;55.680;37.656;2022-08-19T08:49:59;7.38;;;3.65;;
42810;SDS011;28457;55.680;37.656;2022-08-19T08:52:32;6.65;;;3.20;;
42810;SDS011;28457;55.680;37.656;2022-08-19T08:55:07;4.90;;;3.20;;
42810;SDS011;28457;55.680;37.656;2022-08-19T08:57:39;9.73;;;3.45;;
42810;SDS011;28457;55.680;37.656;2022-08-19T09:00:14;4.47;;;2.97;;
42810;SDS011;28457;55.680;37.656;2022-08-19T09:02:46;5.97;;;3.05;;
42810;SDS011;28457;55.680;37.656;2022-08-19T09:05:16;5.72;;;2.78;;
42810;SDS011;28457;55.680;37.656;2022-08-19T09:07:53;8.32;;;3.28;;
42810;SDS011;28457;55.680;37.656;2022-08-19T09:10:28;6.50;;;3.43;;
42810;SDS011;28457;55.680;37.656;2022-08-19T09:13:02;6.18;;;2.90;;
42810;SDS011;28457;55.680;37.656;2022-08-19T09:15:40;8.52;;;3.20;;
42810;SDS011;28457;55.680;37.656;2022-08-19T09:18:13;9.03;;;3.70;;
42810;SDS011;28457;55.680;37.656;2022-08-19T09:20:45;8.85;;;3.50;;
42810;SDS011;28457;55.680;37.656;2022-08-19T09:23:15;6.85;;;3.83;;
42810;SDS011;28457;55.680;37.656;2022-08-19T09:25:52;7.10;;;3.40;;
42810;SDS011;28457;55.680;37.656;2022-08-19T09:28:20;4.25;;;2.88;;
42810;SDS011;28457;55.680;37.656;2022-08-19T09:30:54;11.25;;;4.05;;
42810;SDS011;28457;55.680;37.656;2022-08-19T09:33:22;5.95;;;3.72;;
42810;SDS011;28457;55.680;37.656;2022-08-19T09:36:00;6.25;;;3.10;;
42810;SDS011;28457;55.680;37.656;2022-08-19T09:38:34;9.45;;;4.15;;
42810;SDS011;28457;55.680;37.656;2022-08-19T09:41:10;11.55;;;3.55;;
42810;SDS011;28457;55.680;37.656;2022-08-19T09:43:41;4.28;;;3.00;;
42810;SDS011;28457;55.680;37.656;2022-08-19T09:46:15;6.28;;;3.22;;
42810;SDS011;28457;55.680;37.656;2022-08-19T09:48:49;6.03;;;2.95;;
42810;SDS011;28457;55.680;37.656;2022-08-19T09:51:19;11.75;;;3.53;;
42810;SDS011;28457;55.680;37.656;2022-08-19T09:53:49;7.97;;;3.30;;
42810;SDS011;28457;55.680;37.656;2022-08-19T09:56:21;4.78;;;2.65;;
42810;SDS011;28457;55.680;37.656;2022-08-19T09:58:50;6.65;;;2.70;;
42810;SDS011;28457;55.680;37.656;2022-08-19T10:01:21;9.80;;;3.67;;
42810;SDS011;28457;55.680;37.656;2022-08-19T10:03:53;9.23;;;3.13;;
42810;SDS011;28457;55.680;37.656;2022-08-19T10:06:29;9.65;;;2.90;;
42810;SDS011;28457;55.680;37.656;2022-08-19T10:09:13;9.27;;;3.15;;
42810;SDS011;28457;55.680;37.656;2022-08-19T10:11:52;12.63;;;3.10;;
42810;SDS011;28457;55.680;37.656;2022-08-19T10:14:20;8.88;;;2.72;;
42810;SDS011;28457;55.680;37.656;2022-08-19T10:16:51;6.60;;;2.92;;
42810;SDS011;28457;55.680;37.656;2022-08-19T10:19:20;5.05;;;2.60;;
42810;SDS011;28457;55.680;37.656;2022-08-19T10:21:51;4.80;;;2.83;;
42810;SDS011;28457;55.680;37.656;2022-08-19T10:24:26;6.50;;;2.78;;
42810;SDS011;28457;55.680;37.656;2022-08-19T10:26:55;6.93;;;2.88;;
42810;SDS011;28457;55.680;37.656;2022-08-19T10:29:25;9.20;;;2.92;;
42810;SDS011;28457;55.680;37.656;2022-08-19T10:32:00;5.93;;;2.42;;
42810;SDS011;28457;55.680;37.656;2022-08-19T10:37:14;9.73;;;2.65;;
42810;SDS011;28457;55.680;37.656;2022-08-19T10:39:54;6.60;;;2.67;;
42810;SDS011;28457;55.680;37.656;2022-08-19T10:42:23;7.05;;;2.78;;
42810;SDS011;28457;55.680;37.656;2022-08-19T10:44:51;5.57;;;2.78;;
42810;SDS011;28457;55.680;37.656;2022-08-19T10:47:21;8.95;;;3.33;;
42810;SDS011;28457;55.680;37.656;2022-08-19T10:49:52;5.70;;;2.67;;
42810;SDS011;28457;55.680;37.656;2022-08-19T10:52:39;6.57;;;2.58;;
42810;SDS011;28457;55.680;37.656;2022-08-19T10:55:16;5.63;;;2.63;;
42810;SDS011;28457;55.680;37.656;2022-08-19T10:58:09;9.27;;;2.95;;
42810;SDS011;28457;55.680;37.656;2022-08-19T11:00:39;9.10;;;2.80;;
42810;SDS011;28457;55.680;37.656;2022-08-19T11:03:10;10.88;;;3.10;;
42810;SDS011;28457;55.680;37.656;2022-08-19T11:05:38;7.18;;;3.30;;
42810;SDS011;28457;55.680;37.656;2022-08-19T11:08:08;4.85;;;2.63;;
42810;SDS011;28457;55.680;37.656;2022-08-19T11:10:50;3.28;;;2.05;;
42810;SDS011;28457;55.680;37.656;2022-08-19T11:13:24;4.85;;;2.47;;
42810;SDS011;28457;55.680;37.656;2022-08-19T11:15:57;5.47;;;2.05;;
42810;SDS011;28457;55.680;37.656;2022-08-19T11:18:34;10.65;;;3.33;;
42810;SDS011;28457;55.680;37.656;2022-08-19T11:21:05;5.07;;;2.80;;
42810;SDS011;28457;55.680;37.656;2022-08-19T11:23:34;10.40;;;3.42;;
42810;SDS011;28457;55.680;37.656;2022-08-19T11:26:03;5.07;;;3.00;;
42810;SDS011;28457;55.680;37.656;2022-08-19T11:28:32;5.65;;;2.90;;
42810;SDS011;28457;55.680;37.656;2022-08-19T11:31:00;7.25;;;2.60;;
42810;SDS011;28457;55.680;37.656;2022-08-19T11:33:30;8.07;;;3.22;;
42810;SDS011;28457;55.680;37.656;2022-08-19T11:36:00;7.35;;;2.83;;
42810;SDS011;28457;55.680;37.656;2022-08-19T11:38:29;4.63;;;2.42;;
42810;SDS011;28457;55.680;37.656;2022-08-19T11:40:58;4.13;;;2.42;;
42810;SDS011;28457;55.680;37.656;2022-08-19T11:43:28;9.93;;;2.90;;
42810;SDS011;28457;55.680;37.656;2022-08-19T11:46:03;5.70;;;2.67;;
42810;SDS011;28457;55.680;37.656;2022-08-19T11:48:34;9.25;;;2.70;;
42810;SDS011;28457;55.680;37.656;2022-08-19T11:51:06;5.15;;;2.92;;
42810;SDS011;28457;55.680;37.656;2022-08-19T11:53:36;7.15;;;3.10;;
42810;SDS011;28457;55.680;37.656;2022-08-19T11:56:06;6.72;;;3.17;;
42810;SDS011;28457;55.680;37.656;2022-08-19T11:58:36;6.05;;;2.63;;
42810;SDS011;28457;55.680;37.656;2022-08-19T12:01:05;7.25;;;2.78;;
42810;SDS011;28457;55.680;37.656;2022-08-19T12:03:34;8.13;;;3.22;;
42810;SDS011;28457;55.680;37.656;2022-08-19T12:06:05;7.72;;;3.33;;
42810;SDS011;28457;55.680;37.656;2022-08-19T12:08:35;5.63;;;3.00;;
42810;SDS011;28457;55.680;37.656;2022-08-19T12:11:03;5.95;;;3.15;;
42810;SDS011;28457;55.680;37.656;2022-08-19T12:13:34;7.80;;;3.35;;
42810;SDS011;28457;55.680;37.656;2022-08-19T12:16:07;7.00;;;3.20;;
42810;SDS011;28457;55.680;37.656;2022-08-19T12:18:36;5.90;;;3.70;;
42810;SDS011;28457;55.680;37.656;2022-08-19T12:21:06;5.65;;;3.25;;
42810;SDS011;28457;55.680;37.656;2022-08-19T12:23:34;5.10;;;2.97;;
42810;SDS011;28457;55.680;37.656;2022-08-19T12:26:04;6.25;;;3.10;;
42810;SDS011;28457;55.680;37.656;2022-08-19T12:28:32;6.82;;;2.70;;
42810;SDS011;28457;55.680;37.656;2022-08-19T12:31:01;6.15;;;2.70;;
42810;SDS011;28457;55.680;37.656;2022-08-19T12:33:29;5.55;;;3.20;;
42810;SDS011;28457;55.680;37.656;2022-08-19T12:36:00;6.00;;;3.28;;
42810;SDS011;28457;55.680;37.656;2022-08-19T12:38:31;6.43;;;3.90;;
42810;SDS011;28457;55.680;37.656;2022-08-19T12:41:01;11.02;;;3.75;;
42810;SDS011;28457;55.680;37.656;2022-08-19T12:43:33;7.88;;;3.60;;
42810;SDS011;28457;55.680;37.656;2022-08-19T12:46:02;7.47;;;3.67;;
42810;SDS011;28457;55.680;37.656;2022-08-19T12:48:31;7.35;;;4.13;;
42810;SDS011;28457;55.680;37.656;2022-08-19T12:51:00;12.30;;;3.70;;
42810;SDS011;28457;55.680;37.656;2022-08-19T12:53:35;6.80;;;3.40;;
42810;SDS011;28457;55.680;37.656;2022-08-19T12:56:05;5.75;;;3.40;;
42810;SDS011;28457;55.680;37.656;2022-08-19T12:58:38;9.40;;;3.42;;
42810;SDS011;28457;55.680;37.656;2022-08-19T13:01:16;6.05;;;3.10;;
42810;SDS011;28457;55.680;37.656;2022-08-19T13:03:49;12.75;;;3.60;;
42810;SDS011;28457;55.680;37.656;2022-08-19T13:06:19;6.28;;;3.10;;
42810;SDS011;28457;55.680;37.656;2022-08-19T13:08:49;5.28;;;3.10;;
42810;SDS011;28457;55.680;37.656;2022-08-19T13:11:24;7.32;;;3.60;;
42810;SDS011;28457;55.680;37.656;2022-08-19T13:13:53;5.95;;;3.65;;
42810;SDS011;28457;55.680;37.656;2022-08-19T13:16:22;12.18;;;4.53;;
42810;SDS011;28457;55.680;37.656;2022-08-19T13:18:54;11.90;;;4.40;;
42810;SDS011;28457;55.680;37.656;2022-08-19T13:21:24;10.23;;;5.00;;
42810;SDS011;28457;55.680;37.656;2022-08-19T13:23:57;8.52;;;3.88;;
42810;SDS011;28457;55.680;37.656;2022-08-19T13:26:26;5.97;;;3.97;;
42810;SDS011;28457;55.680;37.656;2022-08-19T13:28:55;8.07;;;5.70;;
42810;SDS011;28457;55.680;37.656;2022-08-19T13:31:41;14.52;;;6.82;;
42810;SDS011;28457;55.680;37.656;2022-08-19T13:34:30;9.95;;;5.70;;
42810;SDS011;28457;55.680;37.656;2022-08-19T13:37:01;8.02;;;4.78;;
42810;SDS011;28457;55.680;37.656;2022-08-19T13:39:32;11.35;;;4.80;;
42810;SDS011;28457;55.680;37.656;2022-08-19T13:42:01;9.48;;;5.03;;
42810;SDS011;28457;55.680;37.656;2022-08-19T13:44:31;5.95;;;3.97;;
42810;SDS011;28457;55.680;37.656;2022-08-19T13:47:00;9.30;;;4.78;;
42810;SDS011;28457;55.680;37.656;2022-08-19T13:49:32;9.73;;;4.35;;
42810;SDS011;28457;55.680;37.656;2022-08-19T13:52:03;7.57;;;3.92;;
42810;SDS011;28457;55.680;37.656;2022-08-19T13:54:33;6.97;;;3.60;;
42810;SDS011;28457;55.680;37.656;2022-08-19T13:57:02;12.40;;;11.10;;
42810;SDS011;28457;55.680;37.656;2022-08-19T13:59:31;15.52;;;12.40;;
42810;SDS011;28457;55.680;37.656;2022-08-19T14:02:00;14.73;;;10.40;;
42810;SDS011;28457;55.680;37.656;2022-08-19T14:04:29;14.75;;;10.65;;
42810;SDS011;28457;55.680;37.656;2022-08-19T14:06:57;13.38;;;8.60;;
42810;SDS011;28457;55.680;37.656;2022-08-19T14:09:26;12.30;;;7.50;;
42810;SDS011;28457;55.680;37.656;2022-08-19T14:11:56;16.63;;;8.60;;
42810;SDS011;28457;55.680;37.656;2022-08-19T14:14:24;8.68;;;7.75;;
42810;SDS011;28457;55.680;37.656;2022-08-19T14:16:52;9.63;;;7.65;;
42810;SDS011;28457;55.680;37.656;2022-08-19T14:19:21;13.48;;;7.90;;
42810;SDS011;28457;55.680;37.656;2022-08-19T14:21:49;14.85;;;8.73;;
42810;SDS011;28457;55.680;37.656;2022-08-19T14:24:18;12.77;;;10.50;;
42810;SDS011;28457;55.680;37.656;2022-08-19T14:26:46;15.77;;;10.27;;
42810;SDS011;28457;55.680;37.656;2022-08-19T14:29:16;17.63;;;10.50;;
42810;SDS011;28457;55.680;37.656;2022-08-19T14:31:45;14.68;;;10.43;;
42810;SDS011;28457;55.680;37.656;2022-08-19T14:34:13;13.50;;;10.70;;
42810;SDS011;28457;55.680;37.656;2022-08-19T14:36:42;17.08;;;15.20;;
42810;SDS011;28457;55.680;37.656;2022-08-19T14:39:11;17.25;;;14.40;;
42810;SDS011;28457;55.680;37.656;2022-08-19T14:41:40;19.00;;;14.23;;
42810;SDS011;28457;55.680;37.656;2022-08-19T14:44:09;17.88;;;13.63;;
42810;SDS011;28457;55.680;37.656;2022-08-19T14:46:40;19.90;;;15.18;;
42810;SDS011;28457;55.680;37.656;2022-08-19T14:49:15;19.13;;;16.10;;
42810;SDS011;28457;55.680;37.656;2022-08-19T14:51:44;18.20;;;15.45;;
42810;SDS011;28457;55.680;37.656;2022-08-19T14:54:14;17.92;;;14.35;;
42810;SDS011;28457;55.680;37.656;2022-08-19T14:56:42;16.27;;;13.32;;
42810;SDS011;28457;55.680;37.656;2022-08-19T14:59:11;17.50;;;13.68;;
42810;SDS011;28457;55.680;37.656;2022-08-19T15:01:41;15.25;;;13.75;;
42810;SDS011;28457;55.680;37.656;2022-08-19T15:04:10;18.02;;;13.75;;